sensor_id;sensor_type;location;lat;lon;timestamp;pressure;altitude;pressure_sealevel;temperature;humidity
21185;BME280;18176;49.502;11.754;2023-07-02T00:01:16;96179.59;;;21.09;72.31
21185;BME280;18176;49.502;11.754;2023-07-02T00:05:17;96211.66;;;21.27;72.21
21185;BME280;18176;49.502;11.754;2023-07-02T00:09:20;96139.78;;;20.41;74.24
21185;BME280;18176;49.502;11.754;2023-07-02T00:13:20;96213.34;;;21.06;74.08
21185;BME280;18176;49.502;11.754;2023-07-02T00:17:21;96214.22;;;20.93;74.20
21185;BME280;18176;49.502;11.754;2023-07-02T00:21:23;96201.78;;;21.23;72.91
21185;BME280;18176;49.502;11.754;2023-07-02T00:25:28;96214.34;;;21.44;71.93
21185;BME280;18176;49.502;11.754;2023-07-02T00:29:28;96221.59;;;21.18;72.88
21185;BME280;18176;49.502;11.754;2023-07-02T00:33:30;96205.53;;;20.96;73.40
21185;BME280;18176;49.502;11.754;2023-07-02T00:37:31;96180.75;;;21.25;71.70
21185;BME280;18176;49.502;11.754;2023-07-02T00:41:34;96213.22;;;21.11;72.15
21185;BME280;18176;49.502;11.754;2023-07-02T00:45:34;96202.59;;;21.23;72.27
21185;BME280;18176;49.502;11.754;2023-07-02T00:49:35;96213.72;;;21.47;70.70
21185;BME280;18176;49.502;11.754;2023-07-02T00:53:36;96211.66;;;21.44;70.87
21185;BME280;18176;49.502;11.754;2023-07-02T00:57:39;96222.38;;;21.19;72.12
21185;BME280;18176;49.502;11.754;2023-07-02T01:01:44;96216.84;;;21.15;72.00
21185;BME280;18176;49.502;11.754;2023-07-02T01:05:49;96216.84;;;21.15;71.69
21185;BME280;18176;49.502;11.754;2023-07-02T01:09:50;96205.28;;;21.15;71.11
21185;BME280;18176;49.502;11.754;2023-07-02T01:13:57;96217.72;;;21.02;71.61
21185;BME280;18176;49.502;11.754;2023-07-02T01:18:00;96190.53;;;20.64;72.78
21185;BME280;18176;49.502;11.754;2023-07-02T01:22:05;96207.59;;;20.99;72.14
21185;BME280;18176;49.502;11.754;2023-07-02T01:26:06;96207.75;;;21.02;71.35
21185;BME280;18176;49.502;11.754;2023-07-02T01:30:08;96225.00;;;20.93;72.77
21185;BME280;18176;49.502;11.754;2023-07-02T01:34:10;96220.13;;;21.04;71.82
21185;BME280;18176;49.502;11.754;2023-07-02T01:38:13;96199.31;;;20.87;71.89
21185;BME280;18176;49.502;11.754;2023-07-02T01:42:16;96224.22;;;20.92;71.90
21185;BME280;18176;49.502;11.754;2023-07-02T01:46:17;96217.34;;;20.78;72.88
21185;BME280;18176;49.502;11.754;2023-07-02T01:50:17;96184.13;;;20.91;71.02
21185;BME280;18176;49.502;11.754;2023-07-02T01:54:22;96234.91;;;21.06;71.40
21185;BME280;18176;49.502;11.754;2023-07-02T01:58:24;96242.84;;;21.11;71.17
21185;BME280;18176;49.502;11.754;2023-07-02T02:02:25;96237.28;;;21.08;70.75
21185;BME280;18176;49.502;11.754;2023-07-02T02:06:25;96247.44;;;21.19;70.86
21185;BME280;18176;49.502;11.754;2023-07-02T02:10:28;96245.09;;;21.26;70.55
21185;BME280;18176;49.502;11.754;2023-07-02T02:14:28;96245.88;;;21.35;69.63
21185;BME280;18176;49.502;11.754;2023-07-02T02:18:29;96226.41;;;21.38;69.15
21185;BME280;18176;49.502;11.754;2023-07-02T02:22:29;96232.41;;;21.44;69.26
21185;BME280;18176;49.502;11.754;2023-07-02T02:26:32;96155.44;;;20.86;69.40
21185;BME280;18176;49.502;11.754;2023-07-02T02:30:33;96238.47;;;21.49;69.01
21185;BME280;18176;49.502;11.754;2023-07-02T02:34:33;96244.19;;;21.56;69.08
21185;BME280;18176;49.502;11.754;2023-07-02T02:38:34;96240.97;;;21.37;70.56
21185;BME280;18176;49.502;11.754;2023-07-02T02:42:38;96214.63;;;21.17;71.32
21185;BME280;18176;49.502;11.754;2023-07-02T02:46:39;96228.59;;;21.19;71.14
21185;BME280;18176;49.502;11.754;2023-07-02T02:50:39;96246.50;;;21.15;71.88
21185;BME280;18176;49.502;11.754;2023-07-02T02:54:40;96210.44;;;20.94;72.74
21185;BME280;18176;49.502;11.754;2023-07-02T02:58:44;96236.00;;;21.05;72.44
21185;BME280;18176;49.502;11.754;2023-07-02T03:02:44;96230.19;;;20.81;72.41
21185;BME280;18176;49.502;11.754;2023-07-02T03:06:45;96177.75;;;20.31;72.29
21185;BME280;18176;49.502;11.754;2023-07-02T03:10:45;96262.28;;;20.69;71.40
21185;BME280;18176;49.502;11.754;2023-07-02T03:14:49;96261.47;;;20.38;72.31
21185;BME280;18176;49.502;11.754;2023-07-02T03:18:51;96248.03;;;20.38;71.59
21185;BME280;18176;49.502;11.754;2023-07-02T03:22:52;96186.97;;;19.94;71.52
21185;BME280;18176;49.502;11.754;2023-07-02T03:26:52;96271.16;;;20.39;71.38
21185;BME280;18176;49.502;11.754;2023-07-02T03:30:55;96248.34;;;20.14;72.17
21185;BME280;18176;49.502;11.754;2023-07-02T03:34:55;96263.69;;;19.91;73.74
21185;BME280;18176;49.502;11.754;2023-07-02T03:38:56;96255.13;;;20.34;71.85
21185;BME280;18176;49.502;11.754;2023-07-02T03:42:56;96249.25;;;20.09;72.67
21185;BME280;18176;49.502;11.754;2023-07-02T03:46:59;96273.13;;;20.24;72.87
21185;BME280;18176;49.502;11.754;2023-07-02T03:51:01;96269.81;;;20.27;71.98
21185;BME280;18176;49.502;11.754;2023-07-02T03:55:03;96283.75;;;20.29;72.09
21185;BME280;18176;49.502;11.754;2023-07-02T03:59:03;96269.94;;;20.00;72.60
21185;BME280;18176;49.502;11.754;2023-07-02T04:03:06;96270.16;;;20.12;72.06
21185;BME280;18176;49.502;11.754;2023-07-02T04:07:08;96280.19;;;20.43;70.52
21185;BME280;18176;49.502;11.754;2023-07-02T04:11:09;96289.97;;;20.39;70.50
21185;BME280;18176;49.502;11.754;2023-07-02T04:15:10;96307.94;;;20.52;69.91
21185;BME280;18176;49.502;11.754;2023-07-02T04:19:13;96312.25;;;20.83;68.83
21185;BME280;18176;49.502;11.754;2023-07-02T04:23:13;96282.94;;;20.82;67.46
21185;BME280;18176;49.502;11.754;2023-07-02T04:27:14;96323.06;;;20.61;68.11
21185;BME280;18176;49.502;11.754;2023-07-02T04:31:34;96327.78;;;20.56;68.05
21185;BME280;18176;49.502;11.754;2023-07-02T04:35:37;96349.47;;;20.59;67.74
21185;BME280;18176;49.502;11.754;2023-07-02T04:39:37;96337.75;;;20.55;66.69
21185;BME280;18176;49.502;11.754;2023-07-02T04:43:38;96341.09;;;20.16;67.79
21185;BME280;18176;49.502;11.754;2023-07-02T04:47:39;96361.91;;;20.47;66.53
21185;BME280;18176;49.502;11.754;2023-07-02T04:51:42;96356.28;;;20.57;66.87
21185;BME280;18176;49.502;11.754;2023-07-02T04:55:43;96350.56;;;20.80;64.95
21185;BME280;18176;49.502;11.754;2023-07-02T04:59:44;96352.84;;;20.65;64.54
21185;BME280;18176;49.502;11.754;2023-07-02T05:03:45;96357.13;;;20.66;64.32
21185;BME280;18176;49.502;11.754;2023-07-02T05:07:48;96359.22;;;20.69;63.56
21185;BME280;18176;49.502;11.754;2023-07-02T05:11:49;96371.94;;;20.33;64.38
21185;BME280;18176;49.502;11.754;2023-07-02T05:15:49;96356.41;;;20.74;63.30
21185;BME280;18176;49.502;11.754;2023-07-02T05:19:50;96370.09;;;20.64;63.30
21185;BME280;18176;49.502;11.754;2023-07-02T05:23:53;96364.72;;;20.64;62.67
21185;BME280;18176;49.502;11.754;2023-07-02T05:27:53;96372.31;;;21.15;61.83
21185;BME280;18176;49.502;11.754;2023-07-02T05:31:54;96361.28;;;20.50;61.39
21185;BME280;18176;49.502;11.754;2023-07-02T05:35:54;96361.41;;;20.67;59.97
21185;BME280;18176;49.502;11.754;2023-07-02T05:39:57;96370.81;;;20.78;59.42
21185;BME280;18176;49.502;11.754;2023-07-02T05:43:57;96387.41;;;20.71;57.54
21185;BME280;18176;49.502;11.754;2023-07-02T05:47:58;96329.66;;;20.33;57.94
21185;BME280;18176;49.502;11.754;2023-07-02T05:51:58;96397.44;;;21.02;55.79
21185;BME280;18176;49.502;11.754;2023-07-02T05:56:01;96366.81;;;20.97;54.77
21185;BME280;18176;49.502;11.754;2023-07-02T06:00:05;96399.50;;;21.35;53.69
21185;BME280;18176;49.502;11.754;2023-07-02T06:04:08;96376.66;;;21.02;53.86
21185;BME280;18176;49.502;11.754;2023-07-02T06:08:09;96393.06;;;21.14;53.40
21185;BME280;18176;49.502;11.754;2023-07-02T06:12:12;96407.97;;;21.51;52.63
21185;BME280;18176;49.502;11.754;2023-07-02T06:16:13;96420.00;;;21.45;52.26
21185;BME280;18176;49.502;11.754;2023-07-02T06:20:13;96422.66;;;21.76;51.41
21185;BME280;18176;49.502;11.754;2023-07-02T06:24:14;96341.50;;;21.46;51.50
21185;BME280;18176;49.502;11.754;2023-07-02T06:28:16;96393.09;;;22.10;51.14
21185;BME280;18176;49.502;11.754;2023-07-02T06:32:17;96412.72;;;22.02;50.18
21185;BME280;18176;49.502;11.754;2023-07-02T06:36:18;96367.69;;;22.28;48.27
21185;BME280;18176;49.502;11.754;2023-07-02T06:40:21;96377.81;;;21.97;47.02
21185;BME280;18176;49.502;11.754;2023-07-02T06:44:24;96418.44;;;21.92;47.53
21185;BME280;18176;49.502;11.754;2023-07-02T06:48:25;96420.69;;;22.15;47.26
21185;BME280;18176;49.502;11.754;2023-07-02T06:52:29;96398.97;;;22.12;47.63
21185;BME280;18176;49.502;11.754;2023-07-02T06:56:29;96375.09;;;21.88;48.67
21185;BME280;18176;49.502;11.754;2023-07-02T07:00:35;96358.81;;;22.19;47.89
21185;BME280;18176;49.502;11.754;2023-07-02T07:04:36;96388.78;;;22.94;47.33
21185;BME280;18176;49.502;11.754;2023-07-02T07:08:37;96403.59;;;22.71;47.92
21185;BME280;18176;49.502;11.754;2023-07-02T07:12:38;96426.13;;;22.58;48.95
21185;BME280;18176;49.502;11.754;2023-07-02T07:16:42;96361.94;;;22.04;50.37
21185;BME280;18176;49.502;11.754;2023-07-02T07:20:42;96389.75;;;22.81;49.01
21185;BME280;18176;49.502;11.754;2023-07-02T07:24:43;96417.47;;;23.16;48.64
21185;BME280;18176;49.502;11.754;2023-07-02T07:28:44;96420.16;;;23.25;47.94
21185;BME280;18176;49.502;11.754;2023-07-02T07:32:47;96405.63;;;22.49;48.83
21185;BME280;18176;49.502;11.754;2023-07-02T07:36:47;96383.16;;;21.80;49.02
21185;BME280;18176;49.502;11.754;2023-07-02T07:40:48;96398.91;;;21.38;47.83
21185;BME280;18176;49.502;11.754;2023-07-02T07:44:48;96424.84;;;21.65;48.12
21185;BME280;18176;49.502;11.754;2023-07-02T07:48:51;96403.88;;;22.10;47.82
21185;BME280;18176;49.502;11.754;2023-07-02T07:52:52;96359.19;;;21.69;47.39
21185;BME280;18176;49.502;11.754;2023-07-02T07:56:52;96432.47;;;22.45;46.73
21185;BME280;18176;49.502;11.754;2023-07-02T08:00:53;96413.88;;;21.61;47.29
21185;BME280;18176;49.502;11.754;2023-07-02T08:04:56;96421.19;;;22.52;46.48
21185;BME280;18176;49.502;11.754;2023-07-02T08:08:57;96409.78;;;22.72;44.33
21185;BME280;18176;49.502;11.754;2023-07-02T08:12:57;96372.72;;;22.89;42.29
21185;BME280;18176;49.502;11.754;2023-07-02T08:16:58;96430.31;;;24.12;40.34
21185;BME280;18176;49.502;11.754;2023-07-02T08:21:01;96431.25;;;24.36;38.96
21185;BME280;18176;49.502;11.754;2023-07-02T08:25:05;96427.25;;;24.42;39.28
21185;BME280;18176;49.502;11.754;2023-07-02T08:29:05;96421.06;;;24.13;40.32
21185;BME280;18176;49.502;11.754;2023-07-02T08:33:06;96422.59;;;23.64;41.02
21185;BME280;18176;49.502;11.754;2023-07-02T08:37:10;96411.03;;;24.13;39.89
21185;BME280;18176;49.502;11.754;2023-07-02T08:41:12;96426.09;;;24.85;39.18
21185;BME280;18176;49.502;11.754;2023-07-02T08:45:14;96423.97;;;24.08;39.28
21185;BME280;18176;49.502;11.754;2023-07-02T08:49:15;96414.09;;;23.28;40.29
21185;BME280;18176;49.502;11.754;2023-07-02T08:53:19;96430.41;;;23.57;40.82
21185;BME280;18176;49.502;11.754;2023-07-02T08:57:23;96419.63;;;25.10;37.67
21185;BME280;18176;49.502;11.754;2023-07-02T09:01:23;96414.13;;;25.88;35.73
21185;BME280;18176;49.502;11.754;2023-07-02T09:05:25;96409.06;;;26.50;34.02
21185;BME280;18176;49.502;11.754;2023-07-02T09:09:30;96462.88;;;26.32;35.38
21185;BME280;18176;49.502;11.754;2023-07-02T09:13:31;96464.88;;;25.51;36.55
21185;BME280;18176;49.502;11.754;2023-07-02T09:17:33;96463.22;;;25.05;37.74
21185;BME280;18176;49.502;11.754;2023-07-02T09:21:44;96473.72;;;25.27;36.70
21185;BME280;18176;49.502;11.754;2023-07-02T09:25:51;96454.03;;;25.75;36.37
21185;BME280;18176;49.502;11.754;2023-07-02T09:29:52;96439.00;;;27.05;35.28
21185;BME280;18176;49.502;11.754;2023-07-02T09:34:01;96428.25;;;27.52;34.33
21185;BME280;18176;49.502;11.754;2023-07-02T09:38:02;96450.00;;;27.37;34.04
21185;BME280;18176;49.502;11.754;2023-07-02T09:42:07;96439.03;;;26.14;34.58
21185;BME280;18176;49.502;11.754;2023-07-02T09:46:09;96439.66;;;26.47;34.51
21185;BME280;18176;49.502;11.754;2023-07-02T09:50:11;96446.47;;;27.08;33.45
21185;BME280;18176;49.502;11.754;2023-07-02T09:54:14;96460.63;;;27.42;33.37
21185;BME280;18176;49.502;11.754;2023-07-02T09:58:18;96451.97;;;26.57;35.42
21185;BME280;18176;49.502;11.754;2023-07-02T10:02:19;96452.50;;;26.62;34.96
21185;BME280;18176;49.502;11.754;2023-07-02T10:06:20;96441.28;;;25.88;36.02
21185;BME280;18176;49.502;11.754;2023-07-02T10:10:31;96412.81;;;26.45;34.30
21185;BME280;18176;49.502;11.754;2023-07-02T10:14:48;96405.34;;;26.82;33.83
21185;BME280;18176;49.502;11.754;2023-07-02T10:18:48;96469.03;;;27.37;33.35
21185;BME280;18176;49.502;11.754;2023-07-02T10:23:16;96347.13;;;26.83;33.57
21185;BME280;18176;49.502;11.754;2023-07-02T10:27:46;96402.03;;;26.61;33.85
21185;BME280;18176;49.502;11.754;2023-07-02T10:32:25;96472.84;;;26.40;35.70
21185;BME280;18176;49.502;11.754;2023-07-02T10:36:34;96424.03;;;25.47;36.19
21185;BME280;18176;49.502;11.754;2023-07-02T10:40:54;96412.53;;;26.63;35.17
21185;BME280;18176;49.502;11.754;2023-07-02T10:45:03;96370.41;;;27.40;33.18
21185;BME280;18176;49.502;11.754;2023-07-02T10:49:12;96410.22;;;28.10;31.85
21185;BME280;18176;49.502;11.754;2023-07-02T10:53:22;96355.44;;;27.18;32.59
21185;BME280;18176;49.502;11.754;2023-07-02T10:57:26;96409.31;;;26.85;33.99
21185;BME280;18176;49.502;11.754;2023-07-02T11:01:32;96469.13;;;27.12;33.65
21185;BME280;18176;49.502;11.754;2023-07-02T11:05:40;96408.13;;;27.88;32.46
21185;BME280;18176;49.502;11.754;2023-07-02T11:09:51;96405.50;;;30.65;30.13
21185;BME280;18176;49.502;11.754;2023-07-02T11:13:56;96461.81;;;30.40;29.22
21185;BME280;18176;49.502;11.754;2023-07-02T11:18:10;96410.81;;;30.25;29.79
21185;BME280;18176;49.502;11.754;2023-07-02T11:22:33;96411.34;;;29.40;30.33
21185;BME280;18176;49.502;11.754;2023-07-02T11:26:40;96417.22;;;29.19;31.71
21185;BME280;18176;49.502;11.754;2023-07-02T11:30:54;96398.13;;;28.62;31.81
21185;BME280;18176;49.502;11.754;2023-07-02T11:34:57;96438.31;;;29.22;30.69
21185;BME280;18176;49.502;11.754;2023-07-02T11:39:06;96445.09;;;29.51;29.20
21185;BME280;18176;49.502;11.754;2023-07-02T11:43:08;96373.84;;;28.57;30.16
21185;BME280;18176;49.502;11.754;2023-07-02T11:47:23;96470.63;;;29.39;29.39
21185;BME280;18176;49.502;11.754;2023-07-02T11:51:32;96362.28;;;29.01;29.47
21185;BME280;18176;49.502;11.754;2023-07-02T11:55:51;96452.44;;;31.67;28.07
21185;BME280;18176;49.502;11.754;2023-07-02T11:59:56;96398.69;;;30.26;28.71
21185;BME280;18176;49.502;11.754;2023-07-02T12:04:05;96414.75;;;29.14;29.27
21185;BME280;18176;49.502;11.754;2023-07-02T12:08:09;96373.19;;;27.43;31.00
21185;BME280;18176;49.502;11.754;2023-07-02T12:12:16;96352.78;;;27.22;32.43
21185;BME280;18176;49.502;11.754;2023-07-02T12:16:25;96426.78;;;29.51;30.51
21185;BME280;18176;49.502;11.754;2023-07-02T12:20:29;96465.38;;;30.74;29.36
21185;BME280;18176;49.502;11.754;2023-07-02T12:24:31;96421.09;;;31.28;27.08
21185;BME280;18176;49.502;11.754;2023-07-02T12:28:36;96373.13;;;31.00;26.37
21185;BME280;18176;49.502;11.754;2023-07-02T12:32:49;96406.22;;;30.06;27.50
21185;BME280;18176;49.502;11.754;2023-07-02T12:36:54;96431.22;;;28.79;28.55
21185;BME280;18176;49.502;11.754;2023-07-02T12:40:57;96362.81;;;29.10;28.98
21185;BME280;18176;49.502;11.754;2023-07-02T12:45:08;96436.47;;;30.73;26.67
21185;BME280;18176;49.502;11.754;2023-07-02T12:49:15;96423.41;;;30.59;26.94
21185;BME280;18176;49.502;11.754;2023-07-02T12:53:27;96397.75;;;31.37;25.54
21185;BME280;18176;49.502;11.754;2023-07-02T12:57:42;96389.84;;;31.29;25.09
21185;BME280;18176;49.502;11.754;2023-07-02T13:01:57;96384.94;;;30.45;26.33
21185;BME280;18176;49.502;11.754;2023-07-02T13:06:10;96452.16;;;30.46;27.67
21185;BME280;18176;49.502;11.754;2023-07-02T13:14:34;96431.97;;;29.60;28.52
21185;BME280;18176;49.502;11.754;2023-07-02T13:18:37;96450.88;;;29.27;27.75
21185;BME280;18176;49.502;11.754;2023-07-02T13:22:37;96454.75;;;29.26;29.07
21185;BME280;18176;49.502;11.754;2023-07-02T13:26:38;96460.03;;;28.80;28.46
21185;BME280;18176;49.502;11.754;2023-07-02T13:30:42;96313.84;;;27.49;28.83
21185;BME280;18176;49.502;11.754;2023-07-02T13:34:45;96452.81;;;28.69;28.76
21185;BME280;18176;49.502;11.754;2023-07-02T13:38:46;96412.75;;;29.75;27.50
21185;BME280;18176;49.502;11.754;2023-07-02T13:42:46;96461.97;;;30.02;27.29
21185;BME280;18176;49.502;11.754;2023-07-02T13:46:48;96453.22;;;30.15;26.88
21185;BME280;18176;49.502;11.754;2023-07-02T13:50:51;96445.16;;;31.85;25.18
21185;BME280;18176;49.502;11.754;2023-07-02T13:54:51;96435.19;;;31.63;24.84
21185;BME280;18176;49.502;11.754;2023-07-02T13:59:06;96455.56;;;31.32;25.64
21185;BME280;18176;49.502;11.754;2023-07-02T14:03:07;96463.44;;;28.93;27.53
21185;BME280;18176;49.502;11.754;2023-07-02T14:07:13;96466.38;;;28.49;27.81
21185;BME280;18176;49.502;11.754;2023-07-02T14:11:14;96447.78;;;28.71;28.32
21185;BME280;18176;49.502;11.754;2023-07-02T14:15:17;96407.00;;;29.16;27.72
21185;BME280;18176;49.502;11.754;2023-07-02T14:19:18;96436.97;;;30.00;26.51
21185;BME280;18176;49.502;11.754;2023-07-02T14:23:18;96406.47;;;30.24;26.32
21185;BME280;18176;49.502;11.754;2023-07-02T14:27:19;96482.78;;;30.10;27.23
21185;BME280;18176;49.502;11.754;2023-07-02T14:31:22;96448.41;;;29.63;26.57
21185;BME280;18176;49.502;11.754;2023-07-02T14:35:23;96468.75;;;28.86;27.99
21185;BME280;18176;49.502;11.754;2023-07-02T14:39:29;96402.84;;;28.65;27.50
21185;BME280;18176;49.502;11.754;2023-07-02T14:43:32;96462.72;;;30.77;25.84
21185;BME280;18176;49.502;11.754;2023-07-02T14:47:36;96461.84;;;31.33;25.03
21185;BME280;18176;49.502;11.754;2023-07-02T14:51:36;96454.13;;;30.79;24.82
21185;BME280;18176;49.502;11.754;2023-07-02T14:55:36;96467.28;;;30.40;25.63
21185;BME280;18176;49.502;11.754;2023-07-02T14:59:37;96471.75;;;31.84;24.27
21185;BME280;18176;49.502;11.754;2023-07-02T15:03:41;96469.47;;;31.50;24.50
21185;BME280;18176;49.502;11.754;2023-07-02T15:07:42;96461.53;;;30.48;25.67
21185;BME280;18176;49.502;11.754;2023-07-02T15:11:42;96451.13;;;29.82;26.14
21185;BME280;18176;49.502;11.754;2023-07-02T15:15:44;96428.91;;;29.19;27.30
21185;BME280;18176;49.502;11.754;2023-07-02T15:19:48;96444.41;;;30.03;26.71
21185;BME280;18176;49.502;11.754;2023-07-02T15:23:48;96461.16;;;30.24;26.29
21185;BME280;18176;49.502;11.754;2023-07-02T15:27:49;96469.59;;;31.27;25.33
21185;BME280;18176;49.502;11.754;2023-07-02T15:31:49;96470.47;;;31.35;25.17
21185;BME280;18176;49.502;11.754;2023-07-02T15:35:52;96427.31;;;31.24;24.89
21185;BME280;18176;49.502;11.754;2023-07-02T15:39:53;96454.69;;;31.24;25.46
21185;BME280;18176;49.502;11.754;2023-07-02T15:43:54;96448.69;;;30.26;26.44
21185;BME280;18176;49.502;11.754;2023-07-02T15:48:00;96466.72;;;29.40;27.30
21185;BME280;18176;49.502;11.754;2023-07-02T15:52:04;96472.69;;;29.68;27.20
21185;BME280;18176;49.502;11.754;2023-07-02T15:56:05;96473.13;;;30.16;26.14
21185;BME280;18176;49.502;11.754;2023-07-02T16:00:08;96465.16;;;29.20;27.21
21185;BME280;18176;49.502;11.754;2023-07-02T16:04:09;96470.84;;;28.73;28.50
21185;BME280;18176;49.502;11.754;2023-07-02T16:08:13;96429.75;;;29.65;27.02
21185;BME280;18176;49.502;11.754;2023-07-02T16:12:14;96472.22;;;31.50;25.80
21185;BME280;18176;49.502;11.754;2023-07-02T16:16:14;96472.84;;;32.13;25.17
21185;BME280;18176;49.502;11.754;2023-07-02T16:20:18;96496.72;;;32.64;23.64
21185;BME280;18176;49.502;11.754;2023-07-02T16:24:25;96446.22;;;32.17;23.69
21185;BME280;18176;49.502;11.754;2023-07-02T16:28:25;96446.13;;;31.26;24.78
21185;BME280;18176;49.502;11.754;2023-07-02T16:32:26;96470.09;;;31.73;24.44
21185;BME280;18176;49.502;11.754;2023-07-02T16:36:29;96461.97;;;32.27;24.12
21185;BME280;18176;49.502;11.754;2023-07-02T16:40:34;96468.53;;;32.67;23.81
21185;BME280;18176;49.502;11.754;2023-07-02T16:44:35;96445.97;;;32.40;24.15
21185;BME280;18176;49.502;11.754;2023-07-02T16:48:36;96466.50;;;31.29;25.10
21185;BME280;18176;49.502;11.754;2023-07-02T16:52:36;96472.41;;;31.71;24.79
21185;BME280;18176;49.502;11.754;2023-07-02T16:56:39;96471.69;;;32.21;24.55
21185;BME280;18176;49.502;11.754;2023-07-02T17:00:40;96469.44;;;31.43;24.61
21185;BME280;18176;49.502;11.754;2023-07-02T17:04:40;96473.97;;;31.68;24.68
21185;BME280;18176;49.502;11.754;2023-07-02T17:08:42;96439.94;;;30.40;25.71
21185;BME280;18176;49.502;11.754;2023-07-02T17:12:45;96463.81;;;29.94;26.35
21185;BME280;18176;49.502;11.754;2023-07-02T17:16:45;96450.97;;;30.47;26.39
21185;BME280;18176;49.502;11.754;2023-07-02T17:20:49;96465.34;;;30.96;25.86
21185;BME280;18176;49.502;11.754;2023-07-02T17:24:51;96456.38;;;30.99;25.46
21185;BME280;18176;49.502;11.754;2023-07-02T17:28:54;96480.91;;;30.92;25.41
21185;BME280;18176;49.502;11.754;2023-07-02T17:32:55;96470.09;;;31.03;25.85
21185;BME280;18176;49.502;11.754;2023-07-02T17:37:00;96483.72;;;30.99;25.36
21185;BME280;18176;49.502;11.754;2023-07-02T17:41:00;96434.16;;;29.51;26.76
21185;BME280;18176;49.502;11.754;2023-07-02T17:45:07;96484.56;;;28.96;27.65
21185;BME280;18176;49.502;11.754;2023-07-02T17:49:08;96470.81;;;29.72;27.39
21185;BME280;18176;49.502;11.754;2023-07-02T17:53:10;96428.41;;;28.76;28.00
21185;BME280;18176;49.502;11.754;2023-07-02T17:57:12;96437.88;;;28.82;28.21
21185;BME280;18176;49.502;11.754;2023-07-02T18:01:17;96478.59;;;29.29;28.21
21185;BME280;18176;49.502;11.754;2023-07-02T18:05:17;96447.88;;;28.93;27.95
21185;BME280;18176;49.502;11.754;2023-07-02T18:09:19;96473.75;;;28.14;29.42
21185;BME280;18176;49.502;11.754;2023-07-02T18:13:19;96417.50;;;27.91;29.40
21185;BME280;18176;49.502;11.754;2023-07-02T18:17:23;96488.38;;;27.63;30.45
21185;BME280;18176;49.502;11.754;2023-07-02T18:21:24;96487.19;;;27.33;31.12
21185;BME280;18176;49.502;11.754;2023-07-02T18:25:25;96482.91;;;26.52;31.93
21185;BME280;18176;49.502;11.754;2023-07-02T18:29:25;96467.63;;;26.11;32.63
21185;BME280;18176;49.502;11.754;2023-07-02T18:33:30;96481.75;;;25.93;33.11
21185;BME280;18176;49.502;11.754;2023-07-02T18:37:30;96486.41;;;25.92;33.12
21185;BME280;18176;49.502;11.754;2023-07-02T18:41:31;96465.19;;;25.49;33.45
21185;BME280;18176;49.502;11.754;2023-07-02T18:45:32;96498.91;;;25.60;33.80
21185;BME280;18176;49.502;11.754;2023-07-02T18:49:36;96433.00;;;25.15;34.00
21185;BME280;18176;49.502;11.754;2023-07-02T18:53:41;96493.97;;;25.42;33.97
21185;BME280;18176;49.502;11.754;2023-07-02T18:57:51;96343.44;;;24.25;34.71
21185;BME280;18176;49.502;11.754;2023-07-02T19:02:06;96338.94;;;24.09;35.30
21185;BME280;18176;49.502;11.754;2023-07-02T19:06:13;96365.44;;;23.95;35.63
21185;BME280;18176;49.502;11.754;2023-07-02T19:10:15;96500.50;;;24.67;35.96
21185;BME280;18176;49.502;11.754;2023-07-02T19:14:15;96502.75;;;24.44;36.07
21185;BME280;18176;49.502;11.754;2023-07-02T19:18:16;96514.47;;;24.27;36.59
21185;BME280;18176;49.502;11.754;2023-07-02T19:22:19;96515.97;;;24.16;36.79
21185;BME280;18176;49.502;11.754;2023-07-02T19:26:20;96521.13;;;23.92;37.49
21185;BME280;18176;49.502;11.754;2023-07-02T19:30:20;96520.88;;;23.77;38.36
21185;BME280;18176;49.502;11.754;2023-07-02T19:34:21;96522.69;;;23.64;38.86
21185;BME280;18176;49.502;11.754;2023-07-02T19:38:24;96491.91;;;23.14;39.28
21185;BME280;18176;49.502;11.754;2023-07-02T19:42:27;96544.03;;;23.05;40.94
21185;BME280;18176;49.502;11.754;2023-07-02T19:46:28;96536.59;;;22.85;40.95
21185;BME280;18176;49.502;11.754;2023-07-02T19:50:40;96497.91;;;22.59;40.60
21185;BME280;18176;49.502;11.754;2023-07-02T19:54:53;96527.66;;;22.68;41.61
21185;BME280;18176;49.502;11.754;2023-07-02T19:58:54;96537.28;;;22.43;42.51
21185;BME280;18176;49.502;11.754;2023-07-02T20:02:54;96540.91;;;22.30;43.01
21185;BME280;18176;49.502;11.754;2023-07-02T20:06:55;96531.31;;;22.07;42.83
21185;BME280;18176;49.502;11.754;2023-07-02T20:10:58;96532.06;;;21.99;43.43
21185;BME280;18176;49.502;11.754;2023-07-02T20:15:00;96549.25;;;22.03;44.35
21185;BME280;18176;49.502;11.754;2023-07-02T20:19:04;96531.28;;;21.67;44.40
21185;BME280;18176;49.502;11.754;2023-07-02T20:23:05;96519.81;;;21.31;44.93
21185;BME280;18176;49.502;11.754;2023-07-02T20:27:10;96478.78;;;20.90;46.25
21185;BME280;18176;49.502;11.754;2023-07-02T20:31:11;96414.75;;;20.43;46.33
21185;BME280;18176;49.502;11.754;2023-07-02T20:35:12;96514.03;;;21.02;46.72
21185;BME280;18176;49.502;11.754;2023-07-02T20:39:13;96498.06;;;20.83;46.59
21185;BME280;18176;49.502;11.754;2023-07-02T20:43:16;96550.00;;;20.84;47.19
21185;BME280;18176;49.502;11.754;2023-07-02T20:47:20;96549.88;;;20.67;48.16
21185;BME280;18176;49.502;11.754;2023-07-02T20:51:26;96588.81;;;20.83;48.16
21185;BME280;18176;49.502;11.754;2023-07-02T20:55:28;96581.81;;;20.46;49.35
21185;BME280;18176;49.502;11.754;2023-07-02T20:59:31;96572.44;;;20.44;49.84
21185;BME280;18176;49.502;11.754;2023-07-02T21:03:32;96592.56;;;20.60;49.80
21185;BME280;18176;49.502;11.754;2023-07-02T21:07:32;96542.72;;;20.08;50.61
21185;BME280;18176;49.502;11.754;2023-07-02T21:11:34;96579.63;;;20.35;50.01
21185;BME280;18176;49.502;11.754;2023-07-02T21:15:37;96607.72;;;20.42;50.23